Time;durP1;ratioP1;P1;durP2;ratioP2;P2;SDS_P1;SDS_P2;PMS_P1;PMS_P2;Temp;Humidity;BMP_temperature;BMP_pressure;BME280_temperature;BME280_humidity;BME280_pressure;Samples;Min_cycle;Max_cycle;Signal;HPM_P1;HPM_P2
2022/10/01 00:00:19;;;;;;;3.22;2.92;;;11.20;99.90;;;;;;6225789;23;20011;-81
2022/10/01 00:02:45;;;;;;;2.97;2.78;;;11.20;99.90;;;;;;6238165;23;20000;-78
2022/10/01 00:05:11;;;;;;;2.70;2.50;;;11.20;99.90;;;;;;6233922;22;20012;-81
2022/10/01 00:07:39;;;;;;;2.65;2.45;;;11.20;99.90;;;;;;6235607;22;20005;-81
2022/10/01 00:10:06;;;;;;;2.92;2.63;;;11.20;99.90;;;;;;6225318;23;20009;-81
2022/10/01 00:12:32;;;;;;;3.25;2.95;;;11.20;99.90;;;;;;6223348;23;20004;-81
2022/10/01 00:14:58;;;;;;;4.28;3.47;;;11.20;99.90;;;;;;6223567;23;19996;-81
2022/10/01 00:17:24;;;;;;;8.85;5.43;;;11.20;99.90;;;;;;6222495;23;20287;-81
2022/10/01 00:19:49;;;;;;;10.23;6.45;;;11.30;99.90;;;;;;6223892;23;20052;-81
2022/10/01 00:22:17;;;;;;;6.22;5.60;;;11.20;99.90;;;;;;6202553;23;20060;-81
2022/10/01 00:24:44;;;;;;;6.78;6.07;;;11.20;99.90;;;;;;6224326;23;20427;-81
2022/10/01 00:27:10;;;;;;;9.38;6.03;;;11.20;99.90;;;;;;6196201;23;20009;-81
2022/10/01 00:29:37;;;;;;;6.68;5.72;;;11.20;99.90;;;;;;6222520;23;20027;-80
2022/10/01 00:32:02;;;;;;;8.38;6.85;;;11.20;99.90;;;;;;6223846;23;20083;-81
2022/10/01 00:34:28;;;;;;;11.43;7.57;;;11.10;99.90;;;;;;6222910;23;20007;-81
2022/10/01 00:36:54;;;;;;;13.25;7.60;;;11.10;99.90;;;;;;6222084;23;20003;-81
2022/10/01 00:39:19;;;;;;;6.60;5.80;;;11.10;99.90;;;;;;6222963;23;20054;-80
2022/10/01 00:41:45;;;;;;;9.20;6.90;;;11.10;99.90;;;;;;6228289;23;20001;-81
2022/10/01 00:44:33;;;;;;;7.47;6.38;;;11.10;99.90;;;;;;6222691;23;20004;-80
2022/10/01 00:47:30;;;;;;;10.77;8.57;;;11.10;99.90;;;;;;6222458;23;20008;-81
2022/10/01 00:50:05;;;;;;;8.90;6.97;;;11.10;99.90;;;;;;6223235;23;20043;-81
2022/10/01 00:52:38;;;;;;;13.80;11.02;;;11.10;99.90;;;;;;6225298;23;20008;-81
2022/10/01 00:55:11;;;;;;;11.63;9.43;;;11.10;99.90;;;;;;6210773;23;20320;-81
2022/10/01 00:57:38;;;;;;;9.82;8.13;;;11.10;99.90;;;;;;6202642;23;20011;-78
2022/10/01 01:00:07;;;;;;;9.32;7.72;;;11.10;99.90;;;;;;6198496;23;20009;-80
2022/10/01 01:02:33;;;;;;;11.32;8.50;;;11.10;99.90;;;;;;6226360;23;20428;-80
2022/10/01 01:04:59;;;;;;;11.75;9.77;;;11.10;99.90;;;;;;6234743;23;20088;-80
2022/10/01 01:07:26;;;;;;;11.60;9.48;;;11.10;99.90;;;;;;6206458;23;20015;-81
2022/10/01 01:09:53;;;;;;;13.88;11.18;;;11.10;99.90;;;;;;6229984;23;20000;-80
2022/10/01 01:12:44;;;;;;;12.95;11.48;;;11.10;99.90;;;;;;6224158;23;20387;-81
2022/10/01 01:15:18;;;;;;;15.02;10.35;;;11.10;99.90;;;;;;6223174;23;20023;-78
2022/10/01 01:18:04;;;;;;;10.88;9.20;;;11.00;99.90;;;;;;6210694;23;20020;-80
2022/10/01 01:21:03;;;;;;;14.02;11.70;;;11.00;99.90;;;;;;6228179;23;20013;-81
2022/10/01 01:23:47;;;;;;;11.32;9.77;;;10.90;99.90;;;;;;6195982;23;20009;-82
2022/10/01 01:26:24;;;;;;;13.13;10.15;;;10.90;99.90;;;;;;6224539;23;20008;-80
2022/10/01 01:28:53;;;;;;;12.30;9.75;;;10.90;99.90;;;;;;6196179;23;20043;-81
2022/10/01 01:31:30;;;;;;;10.30;8.48;;;10.90;99.90;;;;;;6221374;23;20423;-80
2022/10/01 01:33:58;;;;;;;7.80;6.97;;;10.80;99.90;;;;;;6222371;23;20016;-80
2022/10/01 01:36:30;;;;;;;9.32;7.63;;;10.80;99.90;;;;;;6194803;23;20404;-80
2022/10/01 01:39:00;;;;;;;9.30;8.32;;;10.70;99.90;;;;;;6195461;23;20036;-80
2022/10/01 01:41:29;;;;;;;8.90;7.90;;;10.70;99.90;;;;;;6222515;23;20004;-81
2022/10/01 01:43:59;;;;;;;9.70;7.82;;;10.60;99.90;;;;;;6222972;23;20004;-81
2022/10/01 01:46:30;;;;;;;9.80;7.90;;;10.50;99.90;;;;;;6221879;23;20044;-81
2022/10/01 01:48:59;;;;;;;11.82;7.47;;;10.40;99.90;;;;;;6195475;23;20499;-79
2022/10/01 01:51:42;;;;;;;7.95;7.10;;;10.30;99.90;;;;;;6223524;23;19999;-80
2022/10/01 01:54:08;;;;;;;10.23;7.13;;;10.20;99.90;;;;;;6195664;23;19996;-80
2022/10/01 01:56:34;;;;;;;17.17;11.63;;;10.10;99.90;;;;;;6196073;23;20001;-81
2022/10/01 01:59:02;;;;;;;12.27;10.45;;;10.00;99.90;;;;;;6197084;23;20343;-81
2022/10/01 02:01:39;;;;;;;18.52;12.80;;;10.00;99.90;;;;;;6232789;23;20027;-81
2022/10/01 02:04:09;;;;;;;14.63;11.63;;;10.00;99.90;;;;;;6239730;23;19992;-77
2022/10/01 02:06:41;;;;;;;15.00;10.52;;;10.00;99.90;;;;;;6241786;23;20060;-77
2022/10/01 02:09:34;;;;;;;13.55;10.50;;;9.90;99.90;;;;;;6241932;23;20008;-76
2022/10/01 02:12:05;;;;;;;11.70;8.98;;;9.90;99.90;;;;;;6241923;22;20013;-78
2022/10/01 02:14:47;;;;;;;10.02;8.32;;;9.80;99.90;;;;;;6227957;23;20005;-81
2022/10/01 02:17:31;;;;;;;11.13;8.60;;;9.80;99.90;;;;;;6222470;23;20005;-81
2022/10/01 02:20:14;;;;;;;11.23;8.60;;;9.80;99.90;;;;;;6223433;23;20001;-80
2022/10/01 02:23:26;;;;;;;19.52;12.82;;;9.70;99.90;;;;;;6198837;23;19997;-81
2022/10/01 02:25:57;;;;;;;14.00;11.75;;;9.70;99.90;;;;;;6151327;23;19994;-75
2022/10/01 02:28:23;;;;;;;13.77;10.57;;;9.70;99.90;;;;;;6208079;23;20084;-80
2022/10/01 02:39:21;;;;;;;9.88;8.05;;;9.60;99.90;;;;;;6208980;23;20005;-84
2022/10/01 02:42:30;;;;;;;10.25;7.93;;;9.50;99.90;;;;;;6122434;23;20020;-86
2022/10/01 02:45:24;;;;;;;8.20;6.55;;;9.50;99.90;;;;;;6202785;23;20424;-84
2022/10/01 02:48:06;;;;;;;9.27;6.72;;;9.40;99.90;;;;;;6205373;23;19997;-84
2022/10/01 02:50:54;;;;;;;9.05;7.20;;;9.40;99.90;;;;;;6201583;23;20056;-83
2022/10/01 02:57:42;;;;;;;8.70;7.70;;;9.40;99.90;;;;;;6212397;23;20031;-84
2022/10/01 03:03:26;;;;;;;9.88;8.32;;;9.30;99.90;;;;;;6151735;23;20029;-84
2022/10/01 03:23:24;;;;;;;11.48;8.85;;;9.00;99.90;;;;;;6136257;23;20090;-85
2022/10/01 03:25:49;;;;;;;10.07;7.53;;;9.00;99.90;;;;;;6107966;23;20113;-85
2022/10/01 03:28:15;;;;;;;11.32;8.23;;;9.00;99.90;;;;;;6106949;23;20029;-84
2022/10/01 03:30:41;;;;;;;8.50;7.22;;;8.90;99.90;;;;;;6187315;23;20012;-84
2022/10/01 03:33:06;;;;;;;10.02;7.78;;;8.90;99.90;;;;;;6197400;23;20009;-84
2022/10/01 03:35:32;;;;;;;9.27;7.47;;;8.90;99.90;;;;;;6193879;23;20005;-83
2022/10/01 03:37:58;;;;;;;9.35;7.20;;;8.90;99.90;;;;;;6217113;22;20036;-84
2022/10/01 03:40:24;;;;;;;10.57;8.35;;;8.90;99.90;;;;;;6230104;23;20015;-84
2022/10/01 03:42:50;;;;;;;13.75;9.48;;;8.80;99.90;;;;;;6240006;22;19996;-84
2022/10/01 03:45:15;;;;;;;14.85;9.98;;;8.80;99.90;;;;;;6232097;22;20015;-83
2022/10/01 03:47:41;;;;;;;16.02;10.60;;;8.80;99.90;;;;;;6197078;23;20088;-84
2022/10/01 03:50:07;;;;;;;14.63;9.65;;;8.70;99.90;;;;;;6198986;23;20061;-84
2022/10/01 03:52:33;;;;;;;11.80;9.05;;;8.60;99.90;;;;;;6224892;23;20615;-84
2022/10/01 03:54:59;;;;;;;11.05;7.57;;;8.60;99.90;;;;;;6198163;23;20431;-83
2022/10/01 03:57:25;;;;;;;12.18;8.57;;;8.60;99.90;;;;;;6225311;22;20035;-83
2022/10/01 03:59:50;;;;;;;10.05;7.35;;;8.60;99.90;;;;;;6199704;23;20005;-84
2022/10/01 04:02:16;;;;;;;9.32;6.50;;;8.60;99.90;;;;;;6225207;22;20008;-84
2022/10/01 04:04:42;;;;;;;10.18;7.55;;;8.60;99.90;;;;;;6223315;23;20047;-84
2022/10/01 04:07:08;;;;;;;8.63;7.07;;;8.60;99.90;;;;;;6195524;23;20008;-83
2022/10/01 04:09:36;;;;;;;10.40;7.78;;;8.60;99.90;;;;;;6220029;23;20004;-84
2022/10/01 04:12:02;;;;;;;10.75;8.00;;;8.60;99.90;;;;;;6222208;22;20089;-84
2022/10/01 04:14:28;;;;;;;10.05;7.25;;;8.60;99.90;;;;;;6223832;23;20009;-84
2022/10/01 04:16:53;;;;;;;8.52;7.03;;;8.60;99.90;;;;;;6205706;23;20453;-83
2022/10/01 04:19:19;;;;;;;8.00;7.03;;;8.50;99.90;;;;;;6208965;23;20005;-83
2022/10/01 04:21:45;;;;;;;8.82;7.10;;;8.50;99.90;;;;;;6209034;22;20128;-83
2022/10/01 04:24:10;;;;;;;12.23;9.38;;;8.50;99.90;;;;;;6236003;23;20008;-83
2022/10/01 04:26:36;;;;;;;9.95;8.23;;;8.50;99.90;;;;;;6209034;22;20024;-84
2022/10/01 04:29:02;;;;;;;9.77;7.82;;;8.50;99.90;;;;;;6211751;23;20056;-83
2022/10/01 04:31:33;;;;;;;8.25;6.82;;;8.50;99.90;;;;;;6209007;23;20008;-84
2022/10/01 04:33:59;;;;;;;8.77;6.85;;;8.50;99.90;;;;;;6208950;23;20012;-84
2022/10/01 04:36:25;;;;;;;9.98;7.95;;;8.40;99.90;;;;;;6237127;23;20000;-83
2022/10/01 04:38:52;;;;;;;9.50;7.22;;;8.50;99.90;;;;;;6211951;23;20005;-83
2022/10/01 04:41:18;;;;;;;9.63;7.20;;;8.40;99.90;;;;;;6237244;23;20022;-84
2022/10/01 04:43:43;;;;;;;9.30;7.35;;;8.40;99.90;;;;;;6212894;23;20006;-82
2022/10/01 04:46:09;;;;;;;7.25;6.07;;;8.40;99.90;;;;;;6238898;23;20004;-82
2022/10/01 04:48:35;;;;;;;9.07;6.60;;;8.40;99.90;;;;;;6210890;23;20009;-84
2022/10/01 04:51:00;;;;;;;8.48;6.32;;;8.40;99.90;;;;;;6202828;23;20005;-84
2022/10/01 04:53:26;;;;;;;9.32;7.18;;;8.40;99.90;;;;;;6202053;23;20012;-84
2022/10/01 04:55:52;;;;;;;8.25;6.80;;;8.40;99.90;;;;;;6201043;23;20005;-86
2022/10/01 04:58:17;;;;;;;7.35;6.03;;;8.40;99.90;;;;;;6201808;23;20008;-84
2022/10/01 05:00:43;;;;;;;7.90;6.43;;;8.40;99.90;;;;;;6200691;23;20435;-83
2022/10/01 05:03:09;;;;;;;8.00;5.93;;;8.40;99.90;;;;;;6227338;23;20001;-84
2022/10/01 05:05:36;;;;;;;7.25;6.22;;;8.40;99.90;;;;;;6200845;23;20027;-84
2022/10/01 05:08:02;;;;;;;6.47;5.72;;;8.40;99.90;;;;;;6227308;22;20005;-84
2022/10/01 05:10:28;;;;;;;6.88;5.72;;;8.50;99.90;;;;;;6227052;23;20052;-82
2022/10/01 05:12:53;;;;;;;6.32;4.90;;;8.50;99.90;;;;;;6198835;23;20335;-84
2022/10/01 05:15:20;;;;;;;6.05;5.13;;;8.50;99.90;;;;;;6227467;22;20087;-84
2022/10/01 05:17:46;;;;;;;7.13;5.60;;;8.50;99.90;;;;;;6225028;23;20012;-84
2022/10/01 05:20:18;;;;;;;6.82;4.88;;;8.50;99.90;;;;;;6226958;22;20001;-84
2022/10/01 05:22:45;;;;;;;5.40;4.63;;;8.50;99.90;;;;;;6203134;23;20028;-84
2022/10/01 05:25:11;;;;;;;5.07;4.57;;;8.60;99.90;;;;;;6213454;23;20001;-84
2022/10/01 05:27:37;;;;;;;5.43;4.32;;;8.60;99.90;;;;;;6210203;23;20005;-85
2022/10/01 05:30:08;;;;;;;5.25;4.75;;;8.60;99.90;;;;;;6239415;23;20005;-83
2022/10/01 05:32:34;;;;;;;4.88;4.38;;;8.70;99.90;;;;;;6209128;23;20015;-83
2022/10/01 05:35:00;;;;;;;4.35;3.95;;;8.80;99.90;;;;;;6200909;23;20004;-84
2022/10/01 05:37:26;;;;;;;4.60;4.00;;;8.80;99.90;;;;;;6230948;23;20019;-83
2022/10/01 05:39:52;;;;;;;4.97;4.38;;;8.90;99.90;;;;;;6203923;23;20031;-82
2022/10/01 05:42:17;;;;;;;5.45;4.63;;;8.90;99.90;;;;;;6226946;23;19996;-83
2022/10/01 05:44:45;;;;;;;5.10;4.50;;;9.00;99.90;;;;;;6200901;23;20008;-83
2022/10/01 05:47:12;;;;;;;5.35;4.85;;;9.10;99.90;;;;;;6228186;23;20019;-85
2022/10/01 05:49:41;;;;;;;5.47;4.47;;;9.20;99.90;;;;;;6202167;23;20023;-84
2022/10/01 05:52:09;;;;;;;4.78;4.28;;;9.30;99.90;;;;;;6199853;23;20009;-83
2022/10/01 05:54:36;;;;;;;4.80;4.30;;;9.30;99.90;;;;;;6225577;23;20028;-83
2022/10/01 05:57:02;;;;;;;6.47;5.50;;;9.40;99.90;;;;;;6226119;23;20044;-83
2022/10/01 05:59:27;;;;;;;6.60;5.57;;;9.50;99.90;;;;;;6226351;23;20023;-83
2022/10/01 06:01:53;;;;;;;5.68;4.82;;;9.60;99.90;;;;;;6198551;23;20008;-85
2022/10/01 06:04:19;;;;;;;4.57;4.18;;;9.70;99.90;;;;;;6199283;23;20020;-85
2022/10/01 06:06:45;;;;;;;5.03;4.38;;;9.80;99.90;;;;;;6200111;23;20012;-84
2022/10/01 06:09:11;;;;;;;5.25;4.65;;;9.80;99.90;;;;;;6226601;22;20009;-85
2022/10/01 06:11:38;;;;;;;7.07;4.82;;;10.00;99.90;;;;;;6197545;23;20001;-86
2022/10/01 06:14:04;;;;;;;6.03;5.18;;;10.10;99.90;;;;;;6199415;23;20432;-84
2022/10/01 06:16:29;;;;;;;4.95;4.45;;;10.20;99.90;;;;;;6225825;23;20004;-83
2022/10/01 06:18:56;;;;;;;6.20;4.85;;;10.20;99.90;;;;;;6199350;23;20000;-83
2022/10/01 06:21:26;;;;;;;4.78;3.90;;;10.40;99.90;;;;;;6197782;23;20016;-84
2022/10/01 06:23:52;;;;;;;3.78;3.38;;;10.40;99.90;;;;;;6224222;23;20071;-83
2022/10/01 06:26:19;;;;;;;3.92;3.55;;;10.50;99.90;;;;;;6223586;23;20001;-83
2022/10/01 06:28:47;;;;;;;3.88;3.53;;;10.60;99.90;;;;;;6195623;23;20009;-83
2022/10/01 06:31:13;;;;;;;4.70;3.50;;;10.60;99.90;;;;;;6219773;23;20027;-83
2022/10/01 06:33:38;;;;;;;3.17;2.88;;;10.70;99.90;;;;;;6225275;23;19997;-83
2022/10/01 06:36:04;;;;;;;3.65;3.17;;;10.70;99.90;;;;;;6223919;23;20024;-84
2022/10/01 06:38:30;;;;;;;3.92;3.58;;;10.80;99.90;;;;;;6197453;22;20020;-83
2022/10/01 06:40:59;;;;;;;5.97;4.43;;;10.80;99.90;;;;;;6197144;23;20016;-82
2022/10/01 06:43:27;;;;;;;5.07;4.45;;;10.90;99.90;;;;;;6198160;22;20011;-84
2022/10/01 06:45:53;;;;;;;4.50;4.10;;;10.90;99.90;;;;;;6198034;23;20058;-83
2022/10/01 06:48:19;;;;;;;4.18;3.50;;;11.00;99.90;;;;;;6197898;23;20005;-84
2022/10/01 06:50:47;;;;;;;4.68;3.58;;;11.00;99.90;;;;;;6198735;23;20032;-85
2022/10/01 06:53:14;;;;;;;3.63;3.33;;;11.10;99.90;;;;;;6227320;22;20005;-83
2022/10/01 06:55:40;;;;;;;5.15;4.20;;;11.20;99.90;;;;;;6210115;23;20009;-83
2022/10/01 06:58:17;;;;;;;4.20;3.80;;;11.20;99.90;;;;;;6239161;23;19996;-84
2022/10/01 07:00:44;;;;;;;3.40;3.10;;;11.30;99.90;;;;;;6213495;23;20080;-83
2022/10/01 07:03:19;;;;;;;3.60;2.90;;;11.40;99.90;;;;;;6211491;23;20028;-85
2022/10/01 07:05:45;;;;;;;3.22;2.92;;;11.50;99.90;;;;;;6205925;23;20004;-83
2022/10/01 07:08:11;;;;;;;3.15;2.60;;;11.50;99.90;;;;;;6226785;23;20007;-86
2022/10/01 07:10:38;;;;;;;2.97;2.72;;;11.60;99.90;;;;;;6226070;22;20013;-84
2022/10/01 07:13:13;;;;;;;3.83;3.22;;;11.60;99.90;;;;;;6203469;23;20035;-84
2022/10/01 07:15:39;;;;;;;2.67;2.35;;;11.70;99.90;;;;;;6202841;23;20008;-82
2022/10/01 07:18:07;;;;;;;3.03;2.72;;;11.80;99.90;;;;;;6201889;23;20083;-84
2022/10/01 07:20:38;;;;;;;3.70;3.30;;;11.90;99.90;;;;;;6200948;23;20008;-84
2022/10/01 07:23:04;;;;;;;2.88;2.42;;;11.90;99.90;;;;;;6227032;23;20047;-84
2022/10/01 07:25:30;;;;;;;2.75;2.45;;;12.00;99.90;;;;;;6228311;22;20098;-84
2022/10/01 07:27:57;;;;;;;3.78;3.28;;;12.10;99.90;;;;;;6197570;23;20407;-84
2022/10/01 07:30:26;;;;;;;4.20;3.67;;;12.20;99.90;;;;;;6227124;23;20004;-85
2022/10/01 07:33:06;;;;;;;3.47;3.17;;;12.20;99.90;;;;;;6228069;23;20012;-83
2022/10/01 07:35:32;;;;;;;2.83;2.63;;;12.20;99.90;;;;;;6198699;23;20313;-84
2022/10/01 07:37:58;;;;;;;3.20;2.63;;;12.30;99.90;;;;;;6223383;23;20021;-83
2022/10/01 07:53:36;;;;;;;2.60;2.40;;;12.60;98.10;;;;;;6207398;23;20012;-85
2022/10/01 08:02:55;;;;;;;2.27;1.90;;;12.90;96.70;;;;;;6203571;23;20024;-84
2022/10/01 08:08:45;;;;;;;1.75;1.63;;;13.10;95.60;;;;;;6194672;23;20004;-83
2022/10/01 08:11:17;;;;;;;1.70;1.60;;;13.10;95.00;;;;;;6167757;23;19993;-84
2022/10/01 08:13:58;;;;;;;2.72;1.80;;;13.20;94.80;;;;;;6170749;23;20037;-85
2022/10/01 08:16:27;;;;;;;1.40;1.30;;;13.20;93.90;;;;;;6198105;23;20060;-84
2022/10/01 08:18:54;;;;;;;1.45;1.35;;;13.30;93.80;;;;;;6169897;23;20028;-82
2022/10/01 08:21:20;;;;;;;1.75;1.60;;;13.30;93.90;;;;;;6177483;23;20016;-83
2022/10/01 08:23:45;;;;;;;2.22;1.70;;;13.30;93.40;;;;;;6196057;23;20001;-83
2022/10/01 08:26:11;;;;;;;1.42;1.33;;;13.40;93.50;;;;;;6180314;23;20005;-84
2022/10/01 08:28:37;;;;;;;1.88;1.38;;;13.40;93.30;;;;;;6212742;23;19989;-86
2022/10/01 08:31:06;;;;;;;1.75;1.35;;;13.60;93.00;;;;;;6180257;23;20029;-77
2022/10/01 08:33:33;;;;;;;1.75;1.52;;;13.60;92.80;;;;;;6207337;23;20100;-79
2022/10/01 08:36:03;;;;;;;1.23;1.13;;;13.70;92.50;;;;;;6170735;23;20155;-79
2022/10/01 08:38:28;;;;;;;1.55;1.45;;;13.70;92.20;;;;;;6195418;23;20142;-80
2022/10/01 08:40:54;;;;;;;1.02;1.02;;;13.70;91.80;;;;;;6194759;23;20005;-79
2022/10/01 08:43:40;;;;;;;1.65;0.75;;;13.60;91.80;;;;;;6198186;23;20001;-77
2022/10/01 08:46:14;;;;;;;1.48;1.38;;;13.70;92.10;;;;;;6198665;23;20143;-79
2022/10/01 08:49:11;;;;;;;1.40;1.30;;;13.70;91.70;;;;;;6199158;23;20447;-79
2022/10/01 08:51:42;;;;;;;3.47;1.50;;;13.70;91.40;;;;;;6192253;23;20001;-80
2022/10/01 08:54:21;;;;;;;1.95;1.20;;;13.70;91.40;;;;;;6193428;23;20033;-79
2022/10/01 08:56:47;;;;;;;1.15;1.05;;;13.70;91.30;;;;;;6209260;23;20093;-78
2022/10/01 08:59:21;;;;;;;1.70;1.60;;;13.70;91.20;;;;;;6201068;23;20017;-79
2022/10/01 09:01:48;;;;;;;2.15;1.50;;;13.80;90.30;;;;;;6192806;23;20028;-81
2022/10/01 09:04:14;;;;;;;1.33;1.23;;;13.80;90.20;;;;;;6191775;23;20001;-80
2022/10/01 09:06:39;;;;;;;1.67;1.42;;;13.90;90.00;;;;;;6190552;23;20008;-81
2022/10/01 09:09:37;;;;;;;1.35;1.23;;;13.90;89.90;;;;;;6194320;23;20001;-80
2022/10/01 09:12:19;;;;;;;2.13;0.90;;;13.90;90.00;;;;;;6191773;23;20001;-81
2022/10/01 09:15:14;;;;;;;0.90;0.90;;;14.10;89.50;;;;;;6192642;23;20360;-81
2022/10/01 09:18:06;;;;;;;0.90;0.90;;;14.10;88.90;;;;;;6191793;23;20327;-81
2022/10/01 09:20:40;;;;;;;2.17;1.13;;;14.10;88.30;;;;;;6193456;23;20005;-80
2022/10/01 09:23:26;;;;;;;1.27;1.17;;;14.10;87.70;;;;;;6194891;23;20060;-79
2022/10/01 09:25:52;;;;;;;1.25;1.00;;;14.20;86.70;;;;;;6210238;23;20009;-76
2022/10/01 09:28:26;;;;;;;1.13;1.00;;;14.20;86.20;;;;;;6211086;23;19997;-76
2022/10/01 09:31:20;;;;;;;1.30;1.05;;;14.20;85.00;;;;;;6215132;23;20028;-77
2022/10/01 09:34:00;;;;;;;1.05;1.00;;;14.40;85.60;;;;;;6238244;23;20008;-79
2022/10/01 09:36:33;;;;;;;1.48;1.10;;;14.60;84.50;;;;;;6222534;23;20004;-78
2022/10/01 09:39:19;;;;;;;0.88;0.88;;;14.80;84.10;;;;;;6223870;23;20004;-81
2022/10/01 09:41:45;;;;;;;1.00;0.93;;;14.90;83.20;;;;;;6225830;23;20000;-81
2022/10/01 09:44:26;;;;;;;1.27;1.17;;;14.90;82.10;;;;;;6223680;23;20008;-80
2022/10/01 09:46:54;;;;;;;1.97;1.47;;;14.80;81.60;;;;;;6223181;23;20021;-81
2022/10/01 09:49:33;;;;;;;1.60;1.00;;;14.60;82.40;;;;;;6197307;23;20004;-78
2022/10/01 09:52:33;;;;;;;1.80;1.38;;;14.50;83.30;;;;;;6222850;23;20462;-80
2022/10/01 09:55:29;;;;;;;2.15;1.30;;;14.40;84.00;;;;;;6226955;23;20001;-81
2022/10/01 09:58:07;;;;;;;2.20;1.00;;;14.30;84.40;;;;;;6222520;23;20431;-81
2022/10/01 10:00:36;;;;;;;5.95;1.45;;;14.20;85.80;;;;;;6228154;23;20024;-77
2022/10/01 10:03:02;;;;;;;2.03;1.20;;;14.20;86.40;;;;;;6230090;23;20001;-78
2022/10/01 10:05:40;;;;;;;1.50;1.40;;;14.20;87.20;;;;;;6230188;23;20011;-81
2022/10/01 10:08:13;;;;;;;1.58;0.90;;;14.30;87.40;;;;;;6223023;23;20004;-79
2022/10/01 10:10:57;;;;;;;1.38;0.95;;;14.20;88.00;;;;;;6195903;23;20412;-80
2022/10/01 10:13:37;;;;;;;1.08;0.90;;;14.20;88.50;;;;;;6227601;23;20061;-81
2022/10/01 10:16:17;;;;;;;1.95;1.13;;;14.20;89.10;;;;;;6223334;23;20001;-80
2022/10/01 10:18:50;;;;;;;1.75;1.35;;;14.20;89.70;;;;;;6222663;23;20000;-79
2022/10/01 10:21:20;;;;;;;2.33;1.30;;;14.10;90.00;;;;;;6223515;23;20000;-78
2022/10/01 10:23:52;;;;;;;2.50;1.00;;;14.10;90.50;;;;;;6224613;23;20017;-81
2022/10/01 10:26:27;;;;;;;6.50;0.98;;;14.10;90.80;;;;;;6225132;23;20000;-81
2022/10/01 10:28:55;;;;;;;1.20;1.10;;;14.00;91.30;;;;;;6229126;23;20000;-78
2022/10/01 10:31:24;;;;;;;2.67;1.20;;;13.90;91.70;;;;;;6235413;23;20008;-79
2022/10/01 10:34:12;;;;;;;2.97;1.50;;;13.80;92.10;;;;;;6198458;23;20060;-80
2022/10/01 10:36:39;;;;;;;2.03;1.60;;;13.60;92.60;;;;;;6230913;23;19997;-80
2022/10/01 10:39:13;;;;;;;1.42;1.33;;;13.50;93.00;;;;;;6239889;23;20019;-77
2022/10/01 10:41:43;;;;;;;2.95;1.77;;;13.40;93.20;;;;;;6228517;23;20008;-80
2022/10/01 10:44:15;;;;;;;1.95;1.50;;;13.30;93.70;;;;;;6222940;23;20031;-79
2022/10/01 10:46:43;;;;;;;2.10;1.87;;;13.20;94.40;;;;;;6224160;23;20011;-81
2022/10/01 10:49:20;;;;;;;3.03;1.88;;;13.10;94.80;;;;;;6197038;23;20039;-81
2022/10/01 10:51:54;;;;;;;3.65;2.00;;;13.00;95.20;;;;;;6224120;23;20024;-81
2022/10/01 10:54:32;;;;;;;2.10;1.60;;;12.90;95.60;;;;;;6223876;23;20084;-80
2022/10/01 10:57:01;;;;;;;2.75;2.13;;;12.80;95.90;;;;;;6232632;23;19985;-76
2022/10/01 10:59:28;;;;;;;3.20;2.30;;;12.70;96.50;;;;;;6209012;23;20009;-81
2022/10/01 11:01:54;;;;;;;2.42;2.22;;;12.70;97.00;;;;;;6222311;23;20004;-81
2022/10/01 11:04:37;;;;;;;4.43;2.40;;;12.60;97.30;;;;;;6220070;23;20127;-80
2022/10/01 11:07:03;;;;;;;5.60;2.25;;;12.60;97.70;;;;;;6218852;23;20043;-79
2022/10/01 11:09:59;;;;;;;4.40;2.25;;;12.60;97.90;;;;;;6221038;23;20095;-77
2022/10/01 11:12:48;;;;;;;2.90;1.95;;;12.50;98.10;;;;;;6169777;23;20070;-81
2022/10/01 11:15:28;;;;;;;2.95;2.65;;;12.40;98.50;;;;;;6221890;23;20020;-80
2022/10/01 11:18:12;;;;;;;3.88;2.30;;;12.30;99.20;;;;;;6221570;23;20009;-80
2022/10/01 11:21:01;;;;;;;2.22;1.80;;;12.30;99.80;;;;;;6222769;23;20004;-80
2022/10/01 11:24:08;;;;;;;3.25;2.05;;;12.30;99.90;;;;;;6222911;23;19997;-81
2022/10/01 11:26:37;;;;;;;5.88;2.90;;;12.20;99.90;;;;;;6224198;23;20011;-81
2022/10/01 11:29:26;;;;;;;9.55;3.33;;;12.20;99.90;;;;;;6198097;23;20004;-79
2022/10/01 11:32:16;;;;;;;3.40;2.10;;;12.30;99.90;;;;;;6167149;23;20013;-79
2022/10/01 11:35:03;;;;;;;4.03;2.35;;;12.20;99.90;;;;;;6222764;23;20378;-81
2022/10/01 11:37:46;;;;;;;2.33;2.00;;;12.10;99.90;;;;;;6223368;23;20016;-81
2022/10/01 11:40:27;;;;;;;2.30;1.52;;;11.90;99.90;;;;;;6202936;23;20001;-81
2022/10/01 11:43:01;;;;;;;2.22;1.50;;;11.80;99.90;;;;;;6221517;23;20028;-81
2022/10/01 11:45:33;;;;;;;1.52;1.42;;;11.80;99.90;;;;;;6210375;23;20079;-78
2022/10/01 11:48:04;;;;;;;2.30;1.63;;;11.70;99.90;;;;;;6232329;23;19996;-79
2022/10/01 11:50:46;;;;;;;1.85;1.75;;;11.70;99.90;;;;;;6237602;23;20004;-79
2022/10/01 11:53:29;;;;;;;4.40;1.55;;;11.70;99.90;;;;;;6235274;23;20180;-81
2022/10/01 11:59:12;;;;;;;1.77;1.63;;;11.80;99.90;;;;;;6240918;23;20027;-80
2022/10/01 12:01:49;;;;;;;2.85;1.67;;;11.80;99.90;;;;;;6232675;23;20001;-80
2022/10/01 12:04:39;;;;;;;2.15;1.52;;;11.80;99.90;;;;;;6203882;23;20035;-80
2022/10/01 12:07:13;;;;;;;3.25;1.60;;;11.80;99.90;;;;;;6224402;23;20012;-81
2022/10/01 12:09:54;;;;;;;2.55;1.98;;;11.70;99.90;;;;;;6224228;23;20007;-81
2022/10/01 12:12:41;;;;;;;1.50;1.30;;;11.70;99.90;;;;;;6225810;23;20008;-81
2022/10/01 12:15:27;;;;;;;2.70;1.67;;;11.60;99.90;;;;;;6224812;23;20004;-79
2022/10/01 12:18:00;;;;;;;1.95;1.40;;;11.60;99.90;;;;;;6223098;23;20001;-81
2022/10/01 12:20:35;;;;;;;;;;;11.60;99.90;;;;;;6226692;23;20013;-81
2022/10/01 12:23:04;;;;;;;4.72;1.10;;;11.60;99.90;;;;;;6223401;23;19907;-81
2022/10/01 12:26:03;;;;;;;1.30;1.25;;;11.60;99.90;;;;;;6224482;23;20026;-81
2022/10/01 12:28:40;;;;;;;2.10;1.45;;;11.60;99.90;;;;;;6227142;23;20005;-79
2022/10/01 12:31:16;;;;;;;2.97;1.20;;;11.60;99.90;;;;;;6197255;23;20008;-80
2022/10/01 12:34:22;;;;;;;1.45;1.15;;;11.60;99.90;;;;;;6228014;23;20442;-79
2022/10/01 12:37:16;;;;;;;2.03;1.63;;;11.60;99.90;;;;;;6234444;23;19995;-76
2022/10/01 12:40:18;;;;;;;2.42;1.27;;;11.60;99.90;;;;;;6240187;23;20061;-76
2022/10/01 12:42:56;;;;;;;1.20;1.10;;;11.50;99.90;;;;;;6235341;23;20019;-76
2022/10/01 12:45:50;;;;;;;1.38;1.13;;;11.60;99.90;;;;;;6242507;23;19992;-77
2022/10/01 12:48:33;;;;;;;1.80;1.20;;;11.70;99.90;;;;;;6228638;23;20024;-79
2022/10/01 12:51:01;;;;;;;1.80;1.33;;;11.70;99.90;;;;;;6199790;23;20004;-81
2022/10/01 12:53:59;;;;;;;2.55;1.55;;;11.80;99.90;;;;;;6235658;23;20290;-79
2022/10/01 12:56:37;;;;;;;4.18;1.95;;;11.80;99.90;;;;;;6233087;23;20028;-80
2022/10/01 12:59:47;;;;;;;3.65;1.80;;;11.80;99.90;;;;;;6239504;23;20052;-80
2022/10/01 13:02:45;;;;;;;3.03;1.60;;;11.80;99.90;;;;;;6199885;23;20009;-81
2022/10/01 13:06:05;;;;;;;1.90;1.30;;;11.70;99.90;;;;;;6168883;23;20457;-81
2022/10/01 13:08:57;;;;;;;1.33;1.20;;;11.70;99.90;;;;;;6103173;23;20007;-76
2022/10/01 13:11:26;;;;;;;3.15;1.30;;;11.70;99.90;;;;;;6180310;23;20009;-81
2022/10/01 13:13:53;;;;;;;2.25;1.20;;;11.70;99.90;;;;;;6196666;23;20005;-81
2022/10/01 13:16:30;;;;;;;0.70;0.70;;;11.70;99.90;;;;;;6223014;23;20001;-81
2022/10/01 13:19:17;;;;;;;1.55;1.08;;;11.70;99.90;;;;;;6200158;23;20000;-81
2022/10/01 13:22:25;;;;;;;3.05;1.65;;;11.80;99.90;;;;;;6205809;23;20428;-81
2022/10/01 13:25:05;;;;;;;4.25;1.50;;;11.70;99.90;;;;;;6222973;23;20343;-81
2022/10/01 13:27:33;;;;;;;1.42;1.15;;;11.80;99.90;;;;;;6238684;23;20000;-78
2022/10/01 13:30:06;;;;;;;3.08;1.20;;;11.80;99.90;;;;;;6214227;23;19993;-76
2022/10/01 13:32:50;;;;;;;1.45;1.10;;;11.80;99.90;;;;;;6241001;23;20063;-78
2022/10/01 13:35:27;;;;;;;1.63;1.20;;;11.80;99.90;;;;;;6240298;23;20024;-77
2022/10/01 13:37:53;;;;;;;1.73;1.38;;;11.90;99.90;;;;;;6209911;23;20000;-78
2022/10/01 13:40:22;;;;;;;2.17;1.67;;;11.90;99.90;;;;;;6211844;23;19989;-78
2022/10/01 13:42:49;;;;;;;3.30;1.65;;;11.90;99.90;;;;;;6239654;23;19996;-79
2022/10/01 13:45:26;;;;;;;1.20;1.10;;;12.00;99.90;;;;;;6239455;23;20045;-79
2022/10/01 13:48:05;;;;;;;2.63;1.65;;;12.00;99.90;;;;;;6212272;23;20055;-78
2022/10/01 13:50:31;;;;;;;3.42;1.63;;;12.00;99.90;;;;;;6239103;23;20020;-77
2022/10/01 13:53:15;;;;;;;3.05;1.52;;;12.00;99.90;;;;;;6236214;23;20000;-81
2022/10/01 13:55:44;;;;;;;1.25;1.05;;;12.00;99.90;;;;;;6238039;23;20016;-80
2022/10/01 13:58:28;;;;;;;1.77;1.00;;;11.90;99.90;;;;;;6223917;23;20424;-79
2022/10/01 14:00:56;;;;;;;2.67;1.13;;;12.00;99.90;;;;;;6226161;23;20428;-81
2022/10/01 14:03:59;;;;;;;1.80;1.00;;;11.90;99.90;;;;;;6224692;23;20340;-79
2022/10/01 14:06:31;;;;;;;1.85;1.10;;;12.00;99.90;;;;;;6223785;23;20051;-80
2022/10/01 14:09:05;;;;;;;1.10;0.85;;;12.00;99.90;;;;;;6202090;23;20005;-80
2022/10/01 14:17:21;;;;;;;0.80;0.80;;;12.20;99.90;;;;;;6226938;23;20012;-81
2022/10/01 14:19:50;;;;;;;1.30;1.20;;;12.30;99.90;;;;;;6223103;23;20035;-81
2022/10/01 14:22:42;;;;;;;1.83;1.00;;;12.30;99.90;;;;;;6223985;23;20339;-80
2022/10/01 14:25:28;;;;;;;1.75;1.10;;;12.30;99.90;;;;;;6166282;23;20011;-80